Terminal Aerodrome Forecast
Issued by NWS Shreveport, LA

Home | Current Version | Previous Version | Text Only | Print | Product List | Glossary On
Versions: 1 2 3 4 5 6 7 8 9 10 11 12 13
272
FTUS44 KSHV 241720
TAFELD
TAF
KELD 241720Z 2418/2518 17009KT P6SM SCT040
     FM250100 16004KT P6SM SCT150 BKN250
     FM251500 17009KT P6SM SCT025 BKN250=

USA.gov is the U.S. government's official web portal to all federal, state and local government web resources and services.